Pocatello Regional Airport
KPIH : now visible

Airfield :











YOU CAN JOIN US ON...

 
LOGIN :

Register | Disclaimer

   EN    FR    IT 

 









Legend :    VFR   Marginal VFR   IFR   Intensive IFR   Very Intensive IFR
Visi :
Ceiling :
>= 8 km
>= 3000ft
5 to 8 km
1000 to 3000 ft
1500m to 5 km
500 to 1000 ft
800 to 1500m
200 to 500 ft
< 800m
< 200 ft
Symbols :   Thunderstorms  Fog  Heavy snow  Heavy precipitations  Wind > 20 kt






- Airport Elevation : 4452 ft
- IATA code : PIH


KPIH - Pocatello Regional

CURRENT METAR :
  • 232053Z 26011KT 10SM SCT070 30/09 A3000 RMK AO2 SLP104 T03000094 58012

EXPIRED METARs :
  • 231953Z 28012KT 10SM FEW070 28/10 A3002 RMK AO2 SLP112 T02780100
  • 231853Z 26011KT 10SM FEW070 27/11 A3003 RMK AO2 SLP117 T02720106

TAF KPIH
Valid from the 23 at 18:00 until the 24 at 18:00 UTC


231732Z 2318/2418 24014G24KT P6SM BKN150
FM240200 22015KT P6SM FEW120 BKN160
FM240600 23009KT P6SM BKN160
FM241500 22012KT P6SM SCT080 BKN120
KZLC FIR / North America



MET'MAP, your aeronautical weather chart ! - Copyright ORBIFLY December 2007 - Disclaimer

ORBIFLY MET'MAP TEAM :

Programming & Development : Alexandra Zaïnal
Concept & original design : Baudouin d'Aumeries
Assistance for programming : Marc-Olivier Méhu
Technical & hardware support : Manuel Goepfert

Contact : metmap@orbifly.com




SOURCES & CREDITS :

   NOAA       Earth
Advisory